createdAt,value
2023-03-06T00:00:34.556Z,23.45
2023-03-06T00:03:01.395Z,22.77
2023-03-06T00:05:28.220Z,20.27
2023-03-06T00:07:54.944Z,19.33
2023-03-06T00:10:24.854Z,21.58
2023-03-06T00:12:56.572Z,20.73
2023-03-06T00:15:25.500Z,19.60
2023-03-06T00:17:53.194Z,18.88
2023-03-06T00:20:20.757Z,23.33
2023-03-06T00:22:47.457Z,20.05
2023-03-06T00:25:17.045Z,23.38
2023-03-06T00:27:44.166Z,25.67
2023-03-06T00:30:13.545Z,21.70
2023-03-06T00:35:07.268Z,22.05
2023-03-06T00:37:33.877Z,21.85
2023-03-06T00:40:00.546Z,22.48
2023-03-06T00:42:27.195Z,22.10
2023-03-06T00:44:53.892Z,22.13
2023-03-06T00:47:20.572Z,22.50
2023-03-06T00:49:47.246Z,23.23
2023-03-06T00:52:13.993Z,27.52
2023-03-06T00:54:41.288Z,24.42
2023-03-06T00:57:08.560Z,26.48
2023-03-06T00:59:35.344Z,27.35
2023-03-06T01:02:03.008Z,25.92
2023-03-06T01:04:29.778Z,25.65
2023-03-06T01:06:56.433Z,21.42
2023-03-06T01:09:23.074Z,26.80
2023-03-06T01:11:49.724Z,26.90
2023-03-06T01:14:19.098Z,24.40
2023-03-06T01:19:13.176Z,25.83
2023-03-06T01:21:40.193Z,24.92
2023-03-06T01:24:07.065Z,29.10
2023-03-06T01:26:34.622Z,30.23
2023-03-06T01:29:01.736Z,27.27
2023-03-06T01:31:28.421Z,27.02
2023-03-06T01:33:55.340Z,29.75
2023-03-06T01:36:22.004Z,31.42
2023-03-06T01:38:48.682Z,30.92
2023-03-06T01:41:18.273Z,30.63
2023-03-06T01:43:46.496Z,26.92
2023-03-06T01:46:41.816Z,24.20
2023-03-06T01:49:16.667Z,30.58
2023-03-06T01:51:49.752Z,32.10
2023-03-06T01:54:26.977Z,28.83
2023-03-06T01:57:00.407Z,30.50
2023-03-06T01:59:28.658Z,26.55
2023-03-06T02:01:57.184Z,25.98
2023-03-06T02:04:24.692Z,29.73
2023-03-06T02:06:51.817Z,34.85
2023-03-06T02:09:18.733Z,31.00
2023-03-06T02:11:46.353Z,30.10
2023-03-06T02:14:16.404Z,29.98
2023-03-06T02:16:43.814Z,31.30
2023-03-06T02:19:33.330Z,26.80
2023-03-06T02:22:00.501Z,30.45
2023-03-06T02:24:36.832Z,31.30
2023-03-06T02:27:05.435Z,28.52
2023-03-06T02:29:32.208Z,27.90
2023-03-06T02:31:58.893Z,26.45
2023-03-06T02:34:25.599Z,28.70
2023-03-06T02:36:55.641Z,26.17
2023-03-06T02:39:25.581Z,27.05
2023-03-06T02:41:52.514Z,28.35
2023-03-06T02:44:19.659Z,27.30
2023-03-06T02:46:46.308Z,28.55
2023-03-06T02:49:12.935Z,25.80
2023-03-06T02:51:39.604Z,27.17
2023-03-06T02:54:06.424Z,25.40
2023-03-06T02:56:33.028Z,27.40
2023-03-06T02:58:59.656Z,28.77
2023-03-06T03:01:26.399Z,27.83
2023-03-06T03:03:53.032Z,31.75
2023-03-06T03:06:19.648Z,25.45
2023-03-06T03:08:46.245Z,26.02
2023-03-06T03:11:12.867Z,29.73
2023-03-06T03:13:39.467Z,28.77
2023-03-06T03:16:08.849Z,26.80
2023-03-06T03:21:03.317Z,24.75
2023-03-06T03:23:29.909Z,29.08
2023-03-06T03:25:56.577Z,27.05
2023-03-06T03:28:23.171Z,25.42
2023-03-06T03:30:49.816Z,27.75
2023-03-06T03:33:16.486Z,28.73
2023-03-06T03:35:43.116Z,26.40
2023-03-06T03:38:09.867Z,27.52
2023-03-06T03:40:36.505Z,26.77
2023-03-06T03:43:03.196Z,22.95
2023-03-06T03:45:29.873Z,25.20
2023-03-06T03:47:56.475Z,28.05
2023-03-06T03:50:23.230Z,27.33
2023-03-06T03:52:49.880Z,27.13
2023-03-06T03:55:16.647Z,25.23
2023-03-06T03:57:43.390Z,25.92
2023-03-06T04:00:14.877Z,28.35
2023-03-06T04:02:42.373Z,27.38
2023-03-06T04:05:10.376Z,26.60
2023-03-06T04:07:37.455Z,24.48
2023-03-06T04:10:05.330Z,27.38
2023-03-06T04:12:32.084Z,24.23
2023-03-06T04:14:59.165Z,24.58
2023-03-06T04:17:26.165Z,21.95
2023-03-06T04:19:52.934Z,23.67
2023-03-06T04:22:19.635Z,22.60
2023-03-06T04:24:48.890Z,25.00
2023-03-06T04:27:15.970Z,25.52
2023-03-06T04:29:42.629Z,23.85
2023-03-06T04:32:09.424Z,27.17
2023-03-06T04:34:36.188Z,25.45
2023-03-06T04:37:02.889Z,24.40
2023-03-06T04:39:29.504Z,24.67
2023-03-06T04:41:56.134Z,26.38
2023-03-06T04:44:22.803Z,26.85
2023-03-06T04:46:49.542Z,28.95
2023-03-06T04:49:16.152Z,28.27
2023-03-06T04:51:42.802Z,26.77
2023-03-06T04:54:09.390Z,28.75
2023-03-06T04:56:36.047Z,30.38
2023-03-06T04:59:04.308Z,31.45
2023-03-06T05:01:31.012Z,30.58
2023-03-06T05:03:57.684Z,31.25
2023-03-06T05:06:24.339Z,28.67
2023-03-06T05:08:50.989Z,28.88
2023-03-06T05:11:17.618Z,28.30
2023-03-06T05:13:44.560Z,29.80
2023-03-06T05:16:11.186Z,28.00
2023-03-06T05:18:38.055Z,28.05
2023-03-06T05:21:06.134Z,31.00
2023-03-06T05:23:34.887Z,32.03
2023-03-06T05:26:01.714Z,32.92
2023-03-06T05:28:28.762Z,31.65
2023-03-06T05:30:55.555Z,33.42
2023-03-06T05:33:22.227Z,32.72
2023-03-06T05:35:49.473Z,31.15
2023-03-06T05:38:16.754Z,30.42
2023-03-06T05:40:44.671Z,33.45
2023-03-06T05:43:12.477Z,30.33
2023-03-06T05:45:39.989Z,29.75
2023-03-06T05:48:07.612Z,32.30
2023-03-06T05:50:34.339Z,33.03
2023-03-06T05:53:01.232Z,34.00
2023-03-06T05:55:27.889Z,31.55
2023-03-06T05:57:54.552Z,31.15
2023-03-06T06:00:23.210Z,28.55
2023-03-06T06:02:50.200Z,34.03
2023-03-06T06:05:17.094Z,30.52
2023-03-06T06:07:43.731Z,33.17
2023-03-06T06:10:11.637Z,29.02
2023-03-06T06:12:38.367Z,29.27
2023-03-06T06:15:06.622Z,29.45
2023-03-06T06:17:33.336Z,34.40
2023-03-06T06:20:00.014Z,29.45
2023-03-06T06:22:26.596Z,29.83
2023-03-06T06:24:53.217Z,31.15
2023-03-06T06:27:19.848Z,31.63
2023-03-06T06:29:46.441Z,34.13
2023-03-06T06:32:13.130Z,32.80
2023-03-06T06:34:39.915Z,34.40
2023-03-06T06:37:06.666Z,34.90
2023-03-06T06:39:33.255Z,33.05
2023-03-06T06:42:26.138Z,34.13
2023-03-06T06:44:46.567Z,33.22
2023-03-06T06:47:28.918Z,33.13
2023-03-06T06:49:56.539Z,32.88
2023-03-06T06:52:24.590Z,32.85
2023-03-06T06:54:52.038Z,35.90
2023-03-06T06:57:18.905Z,42.05
2023-03-06T06:59:45.605Z,35.13
2023-03-06T07:02:13.768Z,31.75
2023-03-06T07:04:52.379Z,32.83
2023-03-06T07:07:27.383Z,37.45
2023-03-06T07:09:55.571Z,34.30
2023-03-06T07:12:22.213Z,34.58
2023-03-06T07:14:48.886Z,30.95
2023-03-06T07:17:15.581Z,35.30
2023-03-06T07:19:42.216Z,30.65
2023-03-06T07:22:08.934Z,30.80
2023-03-06T07:24:35.660Z,32.65
2023-03-06T07:27:05.342Z,29.38
2023-03-06T07:29:34.054Z,30.02
2023-03-06T07:32:00.977Z,28.83
2023-03-06T07:34:27.740Z,28.80
2023-03-06T07:36:54.392Z,28.33
2023-03-06T07:39:21.062Z,31.50
2023-03-06T07:41:47.734Z,30.02
2023-03-06T07:44:14.519Z,29.73
2023-03-06T07:46:41.377Z,32.00
2023-03-06T07:49:08.088Z,32.05
2023-03-06T07:51:34.772Z,31.23
2023-03-06T07:54:01.432Z,27.45
2023-03-06T07:56:28.003Z,30.17
2023-03-06T07:58:56.710Z,28.52
2023-03-06T08:01:24.304Z,31.50
2023-03-06T08:03:52.023Z,29.13
2023-03-06T08:06:24.779Z,30.58
2023-03-06T08:08:53.239Z,28.17
2023-03-06T08:11:22.853Z,28.80
2023-03-06T08:13:49.748Z,28.70
2023-03-06T08:16:17.649Z,27.25
2023-03-06T08:18:46.326Z,24.20
2023-03-06T08:21:16.160Z,28.33
2023-03-06T08:23:43.813Z,29.38
2023-03-06T08:26:15.956Z,28.70
2023-03-06T08:28:43.548Z,28.60
2023-03-06T08:31:28.894Z,29.13
2023-03-06T08:33:57.706Z,27.02
2023-03-06T08:36:24.629Z,26.52
2023-03-06T08:38:51.669Z,27.23
2023-03-06T08:41:20.180Z,27.50
2023-03-06T08:43:47.166Z,30.13
2023-03-06T08:46:13.907Z,24.80
2023-03-06T08:48:41.150Z,24.85
2023-03-06T08:51:11.280Z,22.40
2023-03-06T08:53:43.518Z,29.48
2023-03-06T08:56:24.078Z,25.27
2023-03-06T08:58:51.929Z,24.20
2023-03-06T09:01:27.790Z,25.25
2023-03-06T09:03:56.315Z,23.02
2023-03-06T09:06:23.934Z,21.70
2023-03-06T09:08:52.348Z,24.08
2023-03-06T09:11:21.036Z,23.75
2023-03-06T09:13:47.690Z,21.13
2023-03-06T09:16:14.405Z,24.02
2023-03-06T09:18:41.705Z,21.83
2023-03-06T09:21:09.660Z,19.90
2023-03-06T09:23:37.252Z,22.00
2023-03-06T09:26:03.908Z,25.60
2023-03-06T09:28:30.588Z,20.23
2023-03-06T09:30:57.405Z,19.38
2023-03-06T09:33:24.175Z,24.77
2023-03-06T09:35:54.728Z,19.27
2023-03-06T09:38:23.965Z,19.15
2023-03-06T09:41:00.456Z,20.38
2023-03-06T09:43:32.647Z,19.77
2023-03-06T09:45:59.565Z,34.90
2023-03-06T09:48:39.540Z,19.45
2023-03-06T09:51:16.122Z,18.95
2023-03-06T09:54:14.710Z,18.00
2023-03-06T09:56:48.856Z,17.90
2023-03-06T09:59:20.924Z,16.25
2023-03-06T10:01:56.484Z,15.80
2023-03-06T10:04:36.577Z,17.42
2023-03-06T10:07:23.605Z,16.25
2023-03-06T10:10:02.822Z,16.33
2023-03-06T10:12:35.297Z,15.10
2023-03-06T10:15:16.368Z,13.57
2023-03-06T10:17:43.995Z,14.63
2023-03-06T10:20:17.379Z,14.20
2023-03-06T10:23:06.800Z,15.52
2023-03-06T10:28:24.460Z,14.30
2023-03-06T10:31:05.121Z,14.07
2023-03-06T10:33:53.084Z,14.45
2023-03-06T10:36:22.039Z,13.02
2023-03-06T10:38:49.153Z,12.88
2023-03-06T10:41:29.164Z,13.25
2023-03-06T10:44:04.874Z,14.68
2023-03-06T10:46:43.424Z,11.07
2023-03-06T10:49:30.576Z,13.47
2023-03-06T10:52:19.255Z,13.15
2023-03-06T10:54:47.139Z,13.13
2023-03-06T10:57:31.078Z,16.10
2023-03-06T10:59:58.906Z,11.05
2023-03-06T11:02:41.207Z,13.40
2023-03-06T11:05:20.412Z,15.77
2023-03-06T11:08:01.667Z,16.83
2023-03-06T11:10:30.069Z,15.40
2023-03-06T11:13:17.189Z,12.77
2023-03-06T11:16:00.292Z,13.07
2023-03-06T11:18:35.254Z,13.27
2023-03-06T11:21:04.603Z,12.55
2023-03-06T11:23:46.708Z,11.45
2023-03-06T11:26:16.567Z,11.48
2023-03-06T11:29:20.493Z,10.38
2023-03-06T11:32:25.272Z,11.27
2023-03-06T11:35:04.434Z,10.18
2023-03-06T11:37:53.999Z,10.35
2023-03-06T11:40:40.426Z,10.10
2023-03-06T11:43:17.124Z,10.95
2023-03-06T11:45:54.829Z,12.68
2023-03-06T11:48:33.418Z,11.48
2023-03-06T11:51:25.975Z,11.63
2023-03-06T11:53:54.077Z,11.70
2023-03-06T11:56:23.694Z,11.15
2023-03-06T11:59:11.780Z,13.00
2023-03-06T12:01:46.069Z,11.93
2023-03-06T12:04:26.962Z,13.32
2023-03-06T12:07:32.728Z,10.93
2023-03-06T12:10:08.506Z,12.02
2023-03-06T12:13:00.581Z,9.45
2023-03-06T12:15:27.163Z,11.80
2023-03-06T12:18:15.393Z,12.82
2023-03-06T12:21:04.461Z,14.43
2023-03-06T12:24:10.408Z,24.13
2023-03-06T12:27:12.481Z,11.05
2023-03-06T12:29:42.094Z,11.88
2023-03-06T12:32:23.816Z,12.57
2023-03-06T12:35:16.455Z,12.40
2023-03-06T12:38:01.114Z,12.43
2023-03-06T12:40:36.851Z,11.07
2023-03-06T12:43:29.479Z,13.85
2023-03-06T12:46:09.579Z,13.48
2023-03-06T12:48:40.065Z,13.95
2023-03-06T12:51:08.872Z,13.68
2023-03-06T12:53:36.841Z,13.98
2023-03-06T12:56:04.677Z,14.10
2023-03-06T12:58:31.238Z,13.75
2023-03-06T13:01:13.181Z,15.00
2023-03-06T13:04:16.840Z,15.27
2023-03-06T13:07:17.538Z,13.32
2023-03-06T13:10:08.873Z,14.10
2023-03-06T13:12:50.073Z,16.10
2023-03-06T13:15:38.096Z,13.50
2023-03-06T13:18:27.998Z,15.00
2023-03-06T13:20:58.199Z,14.93
2023-03-06T13:23:33.911Z,14.13
2023-03-06T13:26:36.740Z,15.55
2023-03-06T13:29:38.465Z,14.07
2023-03-06T13:32:07.841Z,12.93
2023-03-06T13:37:28.977Z,14.55
2023-03-06T13:39:55.624Z,15.80
2023-03-06T13:42:36.086Z,15.20
2023-03-06T13:45:46.759Z,14.57
2023-03-06T13:48:43.736Z,13.68
2023-03-06T13:51:20.521Z,14.20
2023-03-06T13:54:19.233Z,12.80
2023-03-06T13:57:11.166Z,13.40
2023-03-06T14:00:03.050Z,14.75
2023-03-06T14:02:55.796Z,13.73
2023-03-06T14:05:23.406Z,14.25
2023-03-06T14:08:06.837Z,15.85
2023-03-06T14:10:35.475Z,15.60
2023-03-06T14:13:05.863Z,14.07
2023-03-06T14:15:32.409Z,13.18
2023-03-06T14:18:13.933Z,15.40
2023-03-06T14:20:43.920Z,17.58
2023-03-06T14:23:24.270Z,15.13
2023-03-06T14:26:15.278Z,15.88
2023-03-06T14:28:44.286Z,14.93
2023-03-06T14:31:18.106Z,16.25
2023-03-06T14:33:53.138Z,15.73
2023-03-06T14:36:22.244Z,17.17
2023-03-06T14:38:56.087Z,15.73
2023-03-06T14:41:36.089Z,19.02
2023-03-06T14:44:30.165Z,17.83
2023-03-06T14:47:11.472Z,16.90
2023-03-06T14:49:38.100Z,18.55
2023-03-06T14:52:05.030Z,15.93
2023-03-06T14:54:34.389Z,19.42
2023-03-06T14:57:06.091Z,17.83
2023-03-06T14:59:52.922Z,16.45
2023-03-06T15:02:26.674Z,17.23
2023-03-06T15:05:12.581Z,16.30
2023-03-06T15:07:39.436Z,17.27
2023-03-06T15:10:10.498Z,17.67
2023-03-06T15:12:38.864Z,18.20
2023-03-06T15:15:10.412Z,17.27
2023-03-06T15:17:42.268Z,17.67
2023-03-06T15:20:47.309Z,18.42
2023-03-06T15:23:25.313Z,16.23
2023-03-06T15:25:53.567Z,17.95
2023-03-06T15:28:34.552Z,16.67
2023-03-06T15:31:10.667Z,19.17
2023-03-06T15:33:37.621Z,19.05
2023-03-06T15:36:18.107Z,18.15
2023-03-06T15:38:46.695Z,18.13
2023-03-06T15:41:41.898Z,15.57
2023-03-06T15:44:13.299Z,15.52
2023-03-06T15:46:39.928Z,17.92
2023-03-06T15:49:14.413Z,19.63
2023-03-06T15:51:41.071Z,17.77
2023-03-06T15:54:12.225Z,18.67
2023-03-06T15:56:41.011Z,17.95
2023-03-06T15:59:14.197Z,18.97
2023-03-06T16:01:43.044Z,17.90
2023-03-06T16:04:09.631Z,18.95
2023-03-06T16:06:37.324Z,19.58
2023-03-06T16:09:04.110Z,18.77
2023-03-06T16:11:41.874Z,18.17
2023-03-06T16:14:21.293Z,20.63
2023-03-06T16:16:48.460Z,19.48
2023-03-06T16:19:26.331Z,22.00
2023-03-06T16:21:54.672Z,21.17
2023-03-06T16:24:22.001Z,20.83
2023-03-06T16:26:53.408Z,20.67
2023-03-06T16:29:25.670Z,21.15
2023-03-06T16:31:53.723Z,21.52
2023-03-06T16:34:20.414Z,23.90
2023-03-06T16:36:48.790Z,24.65
2023-03-06T16:39:17.631Z,24.80
2023-03-06T16:41:47.490Z,22.98
2023-03-06T16:44:14.243Z,24.15
2023-03-06T16:46:46.256Z,21.60
2023-03-06T16:49:19.461Z,24.30
2023-03-06T16:51:46.160Z,25.30
2023-03-06T16:54:13.137Z,23.38
2023-03-06T16:56:39.894Z,21.17
2023-03-06T16:59:06.937Z,25.27
2023-03-06T17:01:33.944Z,26.42
2023-03-06T17:04:00.768Z,23.10
2023-03-06T17:06:27.862Z,26.65
2023-03-06T17:08:54.816Z,25.73
2023-03-06T17:11:21.557Z,26.52
2023-03-06T17:13:48.936Z,26.38
2023-03-06T17:16:16.752Z,28.38
2023-03-06T17:18:45.434Z,31.23
2023-03-06T17:21:15.682Z,27.23
2023-03-06T17:23:43.062Z,26.08
2023-03-06T17:26:13.246Z,25.15
2023-03-06T17:28:40.882Z,29.33
2023-03-06T17:31:19.558Z,26.55
2023-03-06T17:33:46.804Z,29.05
2023-03-06T17:36:14.700Z,29.77
2023-03-06T17:38:42.149Z,30.58
2023-03-06T17:41:10.806Z,30.55
2023-03-06T17:43:38.898Z,30.57
2023-03-06T17:46:11.942Z,26.58
2023-03-06T17:48:39.521Z,27.33
2023-03-06T17:51:06.774Z,28.20
2023-03-06T17:53:34.048Z,29.08
2023-03-06T17:56:03.740Z,28.13
2023-03-06T17:58:30.461Z,27.95
2023-03-06T18:00:57.220Z,28.15
2023-03-06T18:03:23.932Z,26.08
2023-03-06T18:06:03.604Z,29.25
2023-03-06T18:08:30.406Z,28.40
2023-03-06T18:11:01.175Z,27.75
2023-03-06T18:13:27.840Z,25.73
2023-03-06T18:15:54.738Z,27.40
2023-03-06T18:18:21.609Z,29.60
2023-03-06T18:20:48.323Z,27.25
2023-03-06T18:23:15.526Z,26.77
2023-03-06T18:25:42.414Z,26.00
2023-03-06T18:28:09.396Z,26.83
2023-03-06T18:30:38.096Z,27.58
2023-03-06T18:33:04.961Z,28.58
2023-03-06T18:35:31.699Z,26.08
2023-03-06T18:37:58.321Z,26.02
2023-03-06T18:40:25.044Z,27.90
2023-03-06T18:42:54.575Z,25.23
2023-03-06T18:45:21.459Z,28.15
2023-03-06T18:47:48.114Z,27.92
2023-03-06T18:50:17.672Z,29.08
2023-03-06T18:52:44.567Z,28.85
2023-03-06T18:55:12.266Z,25.45
2023-03-06T18:57:39.278Z,30.10
2023-03-06T19:00:07.512Z,30.20
2023-03-06T19:02:34.116Z,28.45
2023-03-06T19:05:00.731Z,25.58
2023-03-06T19:07:27.356Z,26.00
2023-03-06T19:09:54.105Z,27.83
2023-03-06T19:12:20.746Z,25.92
2023-03-06T19:14:47.518Z,24.67
2023-03-06T19:17:14.237Z,27.92
2023-03-06T19:19:40.964Z,27.20
2023-03-06T19:22:07.582Z,27.77
2023-03-06T19:24:34.269Z,27.85
2023-03-06T19:27:00.963Z,29.67
2023-03-06T19:29:28.555Z,30.63
2023-03-06T19:31:57.168Z,32.67
2023-03-06T19:34:24.025Z,32.53
2023-03-06T19:36:51.016Z,31.92
2023-03-06T19:39:27.358Z,31.73
2023-03-06T19:41:53.948Z,33.90
2023-03-06T19:44:20.602Z,31.90
2023-03-06T19:46:47.226Z,31.85
2023-03-06T19:49:18.016Z,32.08
2023-03-06T19:51:44.771Z,31.67
2023-03-06T19:54:12.468Z,31.67
2023-03-06T19:56:39.633Z,32.80
2023-03-06T19:59:06.306Z,30.42
2023-03-06T20:01:34.346Z,32.00
2023-03-06T20:04:01.641Z,32.20
2023-03-06T20:06:31.515Z,32.70
2023-03-06T20:08:58.500Z,31.65
2023-03-06T20:11:27.475Z,34.95
2023-03-06T20:13:54.428Z,35.70
2023-03-06T20:16:21.089Z,29.38
2023-03-06T20:18:47.794Z,29.38
2023-03-06T20:21:15.394Z,31.90
2023-03-06T20:23:42.494Z,30.90
2023-03-06T20:26:12.091Z,33.70
2023-03-06T20:28:39.714Z,31.45
2023-03-06T20:31:16.886Z,30.42
2023-03-06T20:33:48.952Z,29.55
2023-03-06T20:36:21.311Z,29.17
2023-03-06T20:38:48.567Z,31.90
2023-03-06T20:41:23.382Z,33.10
2023-03-06T20:43:50.670Z,31.42
2023-03-06T20:46:18.171Z,30.98
2023-03-06T20:48:48.963Z,29.95
2023-03-06T20:51:33.435Z,30.77
2023-03-06T20:54:01.682Z,30.40
2023-03-06T20:56:31.316Z,30.38
2023-03-06T20:58:58.987Z,30.15
2023-03-06T21:01:28.494Z,27.58
2023-03-06T21:03:56.968Z,28.45
2023-03-06T21:06:24.406Z,28.90
2023-03-06T21:08:51.148Z,31.45
2023-03-06T21:11:18.176Z,28.40
2023-03-06T21:13:45.141Z,27.13
2023-03-06T21:16:15.656Z,25.63
2023-03-06T21:18:43.159Z,27.30
2023-03-06T21:21:16.519Z,24.35
2023-03-06T21:23:43.259Z,26.90
2023-03-06T21:26:15.722Z,26.92
2023-03-06T21:28:43.398Z,27.33
2023-03-06T21:31:11.951Z,28.60
2023-03-06T21:33:39.375Z,27.77
2023-03-06T21:36:06.842Z,29.63
2023-03-06T21:38:34.218Z,25.13
2023-03-06T21:41:28.562Z,26.05
2023-03-06T21:43:57.070Z,27.08
2023-03-06T21:46:24.196Z,27.47
2023-03-06T21:48:51.188Z,25.88
2023-03-06T21:51:20.202Z,23.85
2023-03-06T21:53:48.133Z,25.55
2023-03-06T21:56:17.404Z,27.63
2023-03-06T21:58:44.687Z,27.65
2023-03-06T22:01:18.710Z,25.35
2023-03-06T22:03:45.810Z,24.85
2023-03-06T22:06:18.349Z,23.65
2023-03-06T22:08:45.738Z,26.10
2023-03-06T22:11:18.076Z,21.48
2023-03-06T22:13:46.094Z,23.73
2023-03-06T22:16:13.343Z,22.50
2023-03-06T22:18:40.644Z,23.27
2023-03-06T22:21:12.387Z,21.73
2023-03-06T22:23:40.461Z,24.75
2023-03-06T22:26:14.490Z,22.40
2023-03-06T22:28:42.155Z,25.60
2023-03-06T22:31:14.322Z,24.25
2023-03-06T22:33:41.299Z,23.23
2023-03-06T22:36:11.732Z,26.23
2023-03-06T22:38:40.754Z,24.02
2023-03-06T22:41:09.309Z,24.63
2023-03-06T22:43:36.702Z,23.13
2023-03-06T22:46:05.686Z,27.40
2023-03-06T22:48:33.052Z,22.92
2023-03-06T22:51:17.289Z,28.27
2023-03-06T22:53:44.466Z,24.08
2023-03-06T22:56:13.706Z,23.77
2023-03-06T22:58:40.693Z,24.38
2023-03-06T23:01:15.946Z,25.23
2023-03-06T23:03:45.296Z,23.05
2023-03-06T23:06:24.263Z,26.67
2023-03-06T23:09:00.700Z,25.52
2023-03-06T23:11:29.366Z,27.65
2023-03-06T23:13:57.133Z,22.25
2023-03-06T23:16:23.971Z,23.85
2023-03-06T23:18:52.857Z,26.10
2023-03-06T23:21:21.640Z,23.40
2023-03-06T23:23:50.272Z,25.38
2023-03-06T23:26:19.344Z,24.85
2023-03-06T23:28:46.389Z,27.05
2023-03-06T23:31:16.983Z,25.67
2023-03-06T23:33:43.944Z,25.25
2023-03-06T23:36:13.970Z,23.02
2023-03-06T23:38:41.061Z,29.45
2023-03-06T23:41:13.061Z,24.17
2023-03-06T23:43:40.403Z,24.98
2023-03-06T23:46:07.883Z,24.65
2023-03-06T23:48:36.252Z,22.30
2023-03-06T23:51:13.446Z,23.02
2023-03-06T23:53:40.585Z,26.92
2023-03-06T23:56:08.173Z,23.75
2023-03-06T23:58:35.776Z,25.10
